sensor_id;sensor_type;location;lat;lon;timestamp;pressure;altitude;pressure_sealevel;temperature;humidity
13934;BME280;7039;52.168;9.866;2024-03-08T10:11:29;100762.69;;;5.90;68.02
13934;BME280;7039;52.168;9.866;2024-03-08T10:18:24;100755.22;;;6.14;67.42
13934;BME280;7039;52.168;9.866;2024-03-08T10:21:07;100753.03;;;5.98;68.11
13934;BME280;7039;52.168;9.866;2024-03-08T10:27:39;100759.38;;;6.49;67.14
13934;BME280;7039;52.168;9.866;2024-03-08T10:33:59;100747.63;;;6.68;66.42
13934;BME280;7039;52.168;9.866;2024-03-08T10:37:07;100736.53;;;6.63;67.14
13934;BME280;7039;52.168;9.866;2024-03-08T10:40:27;100740.50;;;6.45;67.56
13934;BME280;7039;52.168;9.866;2024-03-08T10:43:18;100741.66;;;6.65;67.25
13934;BME280;7039;52.168;9.866;2024-03-08T10:46:03;100741.91;;;6.85;66.53
13934;BME280;7039;52.168;9.866;2024-03-08T10:48:33;100738.38;;;6.88;66.16
13934;BME280;7039;52.168;9.866;2024-03-08T10:54:07;100733.38;;;7.10;65.27
13934;BME280;7039;52.168;9.866;2024-03-08T10:56:36;100717.84;;;7.08;65.40
13934;BME280;7039;52.168;9.866;2024-03-08T11:01:57;100731.91;;;7.29;64.72
13934;BME280;7039;52.168;9.866;2024-03-08T11:04:26;100726.78;;;7.53;63.97
13934;BME280;7039;52.168;9.866;2024-03-08T11:07:22;100726.44;;;7.64;63.82
13934;BME280;7039;52.168;9.866;2024-03-08T11:12:52;100710.81;;;7.65;64.17
13934;BME280;7039;52.168;9.866;2024-03-08T11:28:32;100694.34;;;8.39;62.38
13934;BME280;7039;52.168;9.866;2024-03-08T11:31:23;100681.28;;;7.93;63.72
13934;BME280;7039;52.168;9.866;2024-03-08T11:33:50;100683.28;;;8.33;62.71
13934;BME280;7039;52.168;9.866;2024-03-08T11:36:20;100672.78;;;8.36;62.16
13934;BME280;7039;52.168;9.866;2024-03-08T11:38:48;100680.56;;;8.60;61.89
13934;BME280;7039;52.168;9.866;2024-03-08T11:41:17;100664.44;;;8.52;61.77
13934;BME280;7039;52.168;9.866;2024-03-08T11:43:46;100658.63;;;8.67;62.20
13934;BME280;7039;52.168;9.866;2024-03-08T11:46:14;100648.38;;;8.63;62.51
13934;BME280;7039;52.168;9.866;2024-03-08T11:48:42;100638.72;;;8.44;62.51
13934;BME280;7039;52.168;9.866;2024-03-08T11:51:11;100653.97;;;8.97;62.05
13934;BME280;7039;52.168;9.866;2024-03-08T11:53:42;100650.69;;;8.92;61.97
13934;BME280;7039;52.168;9.866;2024-03-08T11:56:18;100632.94;;;8.82;61.76
13934;BME280;7039;52.168;9.866;2024-03-08T11:59:33;100624.50;;;8.97;60.87
13934;BME280;7039;52.168;9.866;2024-03-08T12:02:03;100617.75;;;8.71;61.77
13934;BME280;7039;52.168;9.866;2024-03-08T12:04:42;100608.00;;;8.76;61.48
13934;BME280;7039;52.168;9.866;2024-03-08T12:07:26;100625.81;;;9.28;61.33
13934;BME280;7039;52.168;9.866;2024-03-08T12:10:16;100631.94;;;9.47;61.05
13934;BME280;7039;52.168;9.866;2024-03-08T12:12:44;100604.06;;;9.08;60.81
13934;BME280;7039;52.168;9.866;2024-03-08T12:15:14;100607.25;;;9.35;60.75
13934;BME280;7039;52.168;9.866;2024-03-08T12:17:48;100595.78;;;9.20;60.99
13934;BME280;7039;52.168;9.866;2024-03-08T12:20:19;100616.72;;;9.58;60.40
13934;BME280;7039;52.168;9.866;2024-03-08T12:22:47;100618.63;;;9.74;60.05
13934;BME280;7039;52.168;9.866;2024-03-08T12:25:15;100611.16;;;9.85;60.38
13934;BME280;7039;52.168;9.866;2024-03-08T12:27:43;100605.84;;;9.88;59.54
13934;BME280;7039;52.168;9.866;2024-03-08T12:30:18;100603.03;;;9.93;59.54
13934;BME280;7039;52.168;9.866;2024-03-08T12:32:52;100584.53;;;9.59;59.90
13934;BME280;7039;52.168;9.866;2024-03-08T12:35:21;100557.78;;;9.56;60.47
13934;BME280;7039;52.168;9.866;2024-03-08T12:38:00;100559.00;;;9.87;60.55
13934;BME280;7039;52.168;9.866;2024-03-08T12:40:28;100558.13;;;9.48;60.46
13934;BME280;7039;52.168;9.866;2024-03-08T12:42:57;100564.50;;;9.80;60.96
13934;BME280;7039;52.168;9.866;2024-03-08T12:45:25;100556.59;;;10.01;59.68
13934;BME280;7039;52.168;9.866;2024-03-08T12:47:53;100576.31;;;10.25;59.53
13934;BME280;7039;52.168;9.866;2024-03-08T12:50:20;100563.88;;;10.13;59.39
13934;BME280;7039;52.168;9.866;2024-03-08T12:52:47;100553.31;;;9.97;59.60
13934;BME280;7039;52.168;9.866;2024-03-08T12:55:15;100548.78;;;10.01;59.25
13934;BME280;7039;52.168;9.866;2024-03-08T12:57:42;100561.53;;;10.45;59.01
13934;BME280;7039;52.168;9.866;2024-03-08T13:00:09;100571.47;;;10.73;58.45
13934;BME280;7039;52.168;9.866;2024-03-08T13:02:40;100566.22;;;11.08;57.61
13934;BME280;7039;52.168;9.866;2024-03-08T13:05:07;100559.72;;;11.17;57.03
13934;BME280;7039;52.168;9.866;2024-03-08T13:07:35;100557.72;;;11.22;57.09
13934;BME280;7039;52.168;9.866;2024-03-08T13:10:03;100554.06;;;11.08;56.42
13934;BME280;7039;52.168;9.866;2024-03-08T13:12:30;100545.06;;;10.97;56.10
13934;BME280;7039;52.168;9.866;2024-03-08T13:14:57;100538.31;;;10.75;56.94
13934;BME280;7039;52.168;9.866;2024-03-08T13:17:24;100527.81;;;10.77;56.79
13934;BME280;7039;52.168;9.866;2024-03-08T13:19:52;100535.97;;;11.21;55.98
13934;BME280;7039;52.168;9.866;2024-03-08T13:22:22;100528.78;;;11.09;56.17
13934;BME280;7039;52.168;9.866;2024-03-08T13:24:50;100535.13;;;11.21;55.26
13934;BME280;7039;52.168;9.866;2024-03-08T13:27:17;100534.91;;;11.25;56.06
13934;BME280;7039;52.168;9.866;2024-03-08T13:29:46;100537.81;;;11.19;56.60
13934;BME280;7039;52.168;9.866;2024-03-08T13:32:14;100511.00;;;11.00;55.83
13934;BME280;7039;52.168;9.866;2024-03-08T13:34:41;100523.66;;;11.41;55.78
13934;BME280;7039;52.168;9.866;2024-03-08T13:37:09;100513.63;;;11.49;55.89
13934;BME280;7039;52.168;9.866;2024-03-08T13:39:37;100499.75;;;11.15;55.43
13934;BME280;7039;52.168;9.866;2024-03-08T13:42:09;100511.47;;;11.57;55.05
13934;BME280;7039;52.168;9.866;2024-03-08T13:44:39;100503.03;;;11.52;55.88
13934;BME280;7039;52.168;9.866;2024-03-08T13:47:06;100497.84;;;11.35;55.20
13934;BME280;7039;52.168;9.866;2024-03-08T13:49:33;100494.09;;;11.07;55.96
13934;BME280;7039;52.168;9.866;2024-03-08T13:51:59;100492.88;;;11.30;56.31
13934;BME280;7039;52.168;9.866;2024-03-08T13:54:28;100485.16;;;11.44;55.85
13934;BME280;7039;52.168;9.866;2024-03-08T13:56:57;100494.63;;;11.63;54.87
13934;BME280;7039;52.168;9.866;2024-03-08T13:59:23;100482.41;;;11.79;54.28
13934;BME280;7039;52.168;9.866;2024-03-08T14:01:54;100480.06;;;11.75;54.85
13934;BME280;7039;52.168;9.866;2024-03-08T14:04:21;100490.34;;;12.09;53.83
13934;BME280;7039;52.168;9.866;2024-03-08T14:07:05;100477.69;;;11.86;54.55
13934;BME280;7039;52.168;9.866;2024-03-08T14:09:34;100492.31;;;12.06;54.08
13934;BME280;7039;52.168;9.866;2024-03-08T14:12:08;100486.31;;;12.04;54.06
13934;BME280;7039;52.168;9.866;2024-03-08T14:14:41;100469.59;;;11.75;55.19
13934;BME280;7039;52.168;9.866;2024-03-08T14:17:13;100481.66;;;12.09;54.11
13934;BME280;7039;52.168;9.866;2024-03-08T14:19:43;100481.94;;;12.04;53.87
13934;BME280;7039;52.168;9.866;2024-03-08T14:22:10;100499.31;;;12.51;53.31
13934;BME280;7039;52.168;9.866;2024-03-08T14:24:41;100484.34;;;12.98;52.33
13934;BME280;7039;52.168;9.866;2024-03-08T14:27:37;100488.47;;;12.88;52.65
13934;BME280;7039;52.168;9.866;2024-03-08T14:30:10;100470.28;;;12.70;52.42
13934;BME280;7039;52.168;9.866;2024-03-08T14:32:45;100465.72;;;12.44;52.74
13934;BME280;7039;52.168;9.866;2024-03-08T14:38:59;100456.50;;;12.52;52.82
13934;BME280;7039;52.168;9.866;2024-03-08T14:44:53;100462.94;;;12.91;50.94
13934;BME280;7039;52.168;9.866;2024-03-08T14:47:30;100457.31;;;12.83;51.42
13934;BME280;7039;52.168;9.866;2024-03-08T14:50:11;100462.28;;;12.88;51.06
13934;BME280;7039;52.168;9.866;2024-03-08T14:52:38;100459.78;;;13.15;51.59
13934;BME280;7039;52.168;9.866;2024-03-08T14:55:16;100455.84;;;13.36;50.96
13934;BME280;7039;52.168;9.866;2024-03-08T14:57:50;100449.03;;;13.20;50.77
13934;BME280;7039;52.168;9.866;2024-03-08T15:00:22;100439.00;;;13.12;51.17
13934;BME280;7039;52.168;9.866;2024-03-08T15:03:02;100432.34;;;13.21;50.54
13934;BME280;7039;52.168;9.866;2024-03-08T15:05:33;100424.31;;;12.95;50.89
13934;BME280;7039;52.168;9.866;2024-03-08T15:08:06;100433.59;;;13.15;49.51
13934;BME280;7039;52.168;9.866;2024-03-08T15:10:45;100412.28;;;12.92;50.88
13934;BME280;7039;52.168;9.866;2024-03-08T15:13:16;100422.31;;;12.56;51.30
13934;BME280;7039;52.168;9.866;2024-03-08T15:15:50;100418.88;;;13.12;50.21
13934;BME280;7039;52.168;9.866;2024-03-08T15:18:22;100413.66;;;12.84;51.80
13934;BME280;7039;52.168;9.866;2024-03-08T15:21:00;100413.94;;;13.22;50.73
13934;BME280;7039;52.168;9.866;2024-03-08T15:31:20;100404.88;;;13.28;50.76
13934;BME280;7039;52.168;9.866;2024-03-08T15:34:14;100387.56;;;13.11;50.96
13934;BME280;7039;52.168;9.866;2024-03-08T15:36:53;100384.78;;;13.00;50.96
13934;BME280;7039;52.168;9.866;2024-03-08T15:39:59;100377.03;;;12.84;51.80
13934;BME280;7039;52.168;9.866;2024-03-08T15:42:45;100389.25;;;13.41;50.83
13934;BME280;7039;52.168;9.866;2024-03-08T15:45:25;100371.03;;;12.82;51.36
13934;BME280;7039;52.168;9.866;2024-03-08T15:48:03;100369.91;;;12.86;51.23
13934;BME280;7039;52.168;9.866;2024-03-08T15:51:17;100370.00;;;12.84;51.75
13934;BME280;7039;52.168;9.866;2024-03-08T15:53:47;100364.09;;;12.52;51.96
13934;BME280;7039;52.168;9.866;2024-03-08T15:59:22;100381.91;;;13.46;50.81
13934;BME280;7039;52.168;9.866;2024-03-08T17:42:44;100228.25;;;6.95;68.53
13934;BME280;7039;52.168;9.866;2024-03-08T18:24:55;100190.78;;;6.58;69.74
13934;BME280;7039;52.168;9.866;2024-03-08T18:30:10;100182.88;;;6.39;70.42
13934;BME280;7039;52.168;9.866;2024-03-08T18:32:47;100200.78;;;6.45;70.02
13934;BME280;7039;52.168;9.866;2024-03-08T18:35:14;100193.03;;;6.45;69.47
13934;BME280;7039;52.168;9.866;2024-03-08T18:48:17;100197.06;;;6.28;69.31
13934;BME280;7039;52.168;9.866;2024-03-08T19:01:48;100177.22;;;6.04;69.98
13934;BME280;7039;52.168;9.866;2024-03-08T19:04:31;100171.28;;;6.02;69.96
13934;BME280;7039;52.168;9.866;2024-03-08T19:07:02;100172.44;;;5.93;69.80
13934;BME280;7039;52.168;9.866;2024-03-08T19:09:30;100163.56;;;6.00;69.37
13934;BME280;7039;52.168;9.866;2024-03-08T19:32:03;100155.22;;;5.67;69.95
13934;BME280;7039;52.168;9.866;2024-03-08T19:34:30;100150.84;;;5.69;69.09
13934;BME280;7039;52.168;9.866;2024-03-08T19:37:01;100148.53;;;5.61;69.62
13934;BME280;7039;52.168;9.866;2024-03-08T19:39:28;100146.91;;;5.59;69.24
13934;BME280;7039;52.168;9.866;2024-03-08T19:44:44;100155.44;;;5.61;69.51
13934;BME280;7039;52.168;9.866;2024-03-08T19:47:22;100146.16;;;5.55;69.48
13934;BME280;7039;52.168;9.866;2024-03-08T19:57:37;100133.81;;;5.38;69.76
13934;BME280;7039;52.168;9.866;2024-03-08T20:05:55;100125.41;;;5.32;70.40
13934;BME280;7039;52.168;9.866;2024-03-08T20:12:22;100124.44;;;5.34;69.83
13934;BME280;7039;52.168;9.866;2024-03-08T20:14:51;100118.59;;;5.29;70.05
13934;BME280;7039;52.168;9.866;2024-03-08T20:31:04;100101.00;;;5.14;70.85
13934;BME280;7039;52.168;9.866;2024-03-08T20:33:31;100100.34;;;5.09;71.08
13934;BME280;7039;52.168;9.866;2024-03-08T20:35:57;100098.66;;;5.06;71.15
13934;BME280;7039;52.168;9.866;2024-03-08T20:38:24;100088.72;;;4.95;71.53
13934;BME280;7039;52.168;9.866;2024-03-08T20:40:52;100100.25;;;5.10;71.11
13934;BME280;7039;52.168;9.866;2024-03-08T20:43:19;100093.34;;;5.11;71.03
13934;BME280;7039;52.168;9.866;2024-03-08T20:45:46;100086.63;;;5.07;71.09
13934;BME280;7039;52.168;9.866;2024-03-08T20:48:15;100080.81;;;5.00;71.16
13934;BME280;7039;52.168;9.866;2024-03-08T20:50:44;100085.75;;;5.06;70.94
13934;BME280;7039;52.168;9.866;2024-03-08T20:53:10;100088.59;;;4.98;71.17
13934;BME280;7039;52.168;9.866;2024-03-08T20:55:39;100071.03;;;5.08;71.08
13934;BME280;7039;52.168;9.866;2024-03-08T20:58:07;100073.78;;;5.03;70.86
13934;BME280;7039;52.168;9.866;2024-03-08T21:06:14;100056.78;;;4.96;71.72
13934;BME280;7039;52.168;9.866;2024-03-08T21:15:09;100032.06;;;4.89;72.12
13934;BME280;7039;52.168;9.866;2024-03-08T21:20:15;100047.44;;;4.92;72.22
13934;BME280;7039;52.168;9.866;2024-03-08T21:22:54;100036.91;;;4.98;71.79
13934;BME280;7039;52.168;9.866;2024-03-08T21:25:22;100045.81;;;4.90;72.34
13934;BME280;7039;52.168;9.866;2024-03-08T21:28:00;100033.81;;;4.89;72.72
13934;BME280;7039;52.168;9.866;2024-03-08T21:33:04;100034.03;;;4.81;73.07
13934;BME280;7039;52.168;9.866;2024-03-08T21:35:36;100014.09;;;4.59;74.04
13934;BME280;7039;52.168;9.866;2024-03-08T21:38:04;100023.28;;;4.68;73.69
13934;BME280;7039;52.168;9.866;2024-03-08T21:40:32;100009.56;;;4.66;73.09
13934;BME280;7039;52.168;9.866;2024-03-08T21:43:01;100016.25;;;4.72;73.49
13934;BME280;7039;52.168;9.866;2024-03-08T21:45:28;100019.13;;;4.64;73.51
13934;BME280;7039;52.168;9.866;2024-03-08T21:47:58;100010.69;;;4.59;73.91
13934;BME280;7039;52.168;9.866;2024-03-08T21:50:34;100014.78;;;4.65;73.85
13934;BME280;7039;52.168;9.866;2024-03-08T21:53:01;100013.16;;;4.62;74.13
13934;BME280;7039;52.168;9.866;2024-03-08T21:55:35;100010.44;;;4.65;74.09
13934;BME280;7039;52.168;9.866;2024-03-08T21:58:02;100000.91;;;4.67;74.03
13934;BME280;7039;52.168;9.866;2024-03-08T22:00:30;100004.50;;;4.63;74.01
13934;BME280;7039;52.168;9.866;2024-03-08T22:02:58;99989.06;;;4.62;74.31
13934;BME280;7039;52.168;9.866;2024-03-08T22:05:26;99994.22;;;4.62;74.11
13934;BME280;7039;52.168;9.866;2024-03-08T22:07:56;99989.16;;;4.58;74.44
13934;BME280;7039;52.168;9.866;2024-03-08T22:10:24;99993.63;;;4.53;74.79
13934;BME280;7039;52.168;9.866;2024-03-08T22:12:52;99998.84;;;4.52;74.67
13934;BME280;7039;52.168;9.866;2024-03-08T22:15:20;99990.50;;;4.44;75.01
13934;BME280;7039;52.168;9.866;2024-03-08T22:17:48;99996.41;;;4.47;75.04
13934;BME280;7039;52.168;9.866;2024-03-08T22:20:16;99987.97;;;4.42;75.46
13934;BME280;7039;52.168;9.866;2024-03-08T22:22:47;99987.78;;;4.48;75.35
13934;BME280;7039;52.168;9.866;2024-03-08T22:25:22;99975.25;;;4.36;75.87
13934;BME280;7039;52.168;9.866;2024-03-08T22:27:54;99970.06;;;4.37;75.70
13934;BME280;7039;52.168;9.866;2024-03-08T22:30:22;99970.84;;;4.39;75.89
13934;BME280;7039;52.168;9.866;2024-03-08T22:32:50;99964.19;;;4.32;76.10
13934;BME280;7039;52.168;9.866;2024-03-08T22:35:21;99964.09;;;4.35;76.10
13934;BME280;7039;52.168;9.866;2024-03-08T22:37:49;99965.06;;;4.31;76.16
13934;BME280;7039;52.168;9.866;2024-03-08T22:40:18;99966.81;;;4.31;76.20
13934;BME280;7039;52.168;9.866;2024-03-08T22:42:49;99959.38;;;4.22;76.47
13934;BME280;7039;52.168;9.866;2024-03-08T22:45:20;99964.69;;;4.17;76.47
13934;BME280;7039;52.168;9.866;2024-03-08T22:47:48;99964.88;;;4.11;76.63
13934;BME280;7039;52.168;9.866;2024-03-08T22:50:16;99954.13;;;3.98;77.52
13934;BME280;7039;52.168;9.866;2024-03-08T22:52:44;99953.28;;;3.97;77.51
13934;BME280;7039;52.168;9.866;2024-03-08T22:55:13;99950.13;;;3.88;78.00
13934;BME280;7039;52.168;9.866;2024-03-08T22:57:44;99946.38;;;3.98;78.13
13934;BME280;7039;52.168;9.866;2024-03-08T23:00:13;99941.91;;;4.03;78.18
13934;BME280;7039;52.168;9.866;2024-03-08T23:02:56;99950.97;;;4.15;77.66
13934;BME280;7039;52.168;9.866;2024-03-08T23:05:24;99948.94;;;3.98;78.50
13934;BME280;7039;52.168;9.866;2024-03-08T23:07:52;99949.59;;;4.05;78.16
13934;BME280;7039;52.168;9.866;2024-03-08T23:10:19;99949.16;;;3.90;78.63
13934;BME280;7039;52.168;9.866;2024-03-08T23:12:57;99956.88;;;3.92;78.36
13934;BME280;7039;52.168;9.866;2024-03-08T23:15:24;99959.88;;;3.78;79.15
13934;BME280;7039;52.168;9.866;2024-03-08T23:18:03;99963.00;;;3.88;78.98
13934;BME280;7039;52.168;9.866;2024-03-08T23:20:35;99958.28;;;3.74;78.94
13934;BME280;7039;52.168;9.866;2024-03-08T23:23:02;99955.63;;;3.77;79.12
13934;BME280;7039;52.168;9.866;2024-03-08T23:25:31;99955.88;;;3.68;79.96
13934;BME280;7039;52.168;9.866;2024-03-08T23:27:59;99963.69;;;3.66;80.12
13934;BME280;7039;52.168;9.866;2024-03-08T23:30:28;99958.91;;;3.82;79.49
13934;BME280;7039;52.168;9.866;2024-03-08T23:33:07;99958.28;;;3.74;79.87
13934;BME280;7039;52.168;9.866;2024-03-08T23:35:37;99962.69;;;3.70;79.98
13934;BME280;7039;52.168;9.866;2024-03-08T23:38:04;99971.97;;;3.76;79.83
13934;BME280;7039;52.168;9.866;2024-03-08T23:40:43;99966.81;;;3.76;80.22
13934;BME280;7039;52.168;9.866;2024-03-08T23:43:13;99962.69;;;3.70;79.86
13934;BME280;7039;52.168;9.866;2024-03-08T23:45:44;99964.47;;;3.68;80.35
13934;BME280;7039;52.168;9.866;2024-03-08T23:48:13;99977.09;;;3.78;79.89
13934;BME280;7039;52.168;9.866;2024-03-08T23:50:39;99970.75;;;3.60;80.00
13934;BME280;7039;52.168;9.866;2024-03-08T23:53:07;99967.47;;;3.54;80.66
13934;BME280;7039;52.168;9.866;2024-03-08T23:55:36;99968.28;;;3.57;80.72
13934;BME280;7039;52.168;9.866;2024-03-08T23:58:04;99967.38;;;3.58;80.93
